sensor_id;sensor_type;location;lat;lon;timestamp;P1;durP1;ratioP1;P2;durP2;ratioP2
38425;SDS011;24210;51.460;6.148;2024-03-23T00:56:12;8.23;;;2.03;;
38425;SDS011;24210;51.460;6.148;2024-03-23T00:58:37;7.47;;;2.47;;
38425;SDS011;24210;51.460;6.148;2024-03-23T01:01:02;8.17;;;1.80;;
38425;SDS011;24210;51.460;6.148;2024-03-23T01:03:29;8.70;;;2.80;;
38425;SDS011;24210;51.460;6.148;2024-03-23T01:05:54;6.70;;;2.33;;
38425;SDS011;24210;51.460;6.148;2024-03-23T01:08:19;6.00;;;1.80;;
38425;SDS011;24210;51.460;6.148;2024-03-23T01:10:53;5.53;;;1.93;;
38425;SDS011;24210;51.460;6.148;2024-03-23T01:13:18;10.38;;;2.20;;
38425;SDS011;24210;51.460;6.148;2024-03-23T01:15:48;7.90;;;2.80;;
38425;SDS011;24210;51.460;6.148;2024-03-23T01:18:13;4.47;;;1.75;;
38425;SDS011;24210;51.460;6.148;2024-03-23T01:20:38;12.47;;;2.07;;
38425;SDS011;24210;51.460;6.148;2024-03-23T01:23:03;4.93;;;1.90;;
38425;SDS011;24210;51.460;6.148;2024-03-23T01:25:29;8.97;;;2.27;;
38425;SDS011;24210;51.460;6.148;2024-03-23T01:27:54;5.57;;;1.60;;
38425;SDS011;24210;51.460;6.148;2024-03-23T01:30:19;5.90;;;1.60;;
38425;SDS011;24210;51.460;6.148;2024-03-23T01:32:44;4.83;;;1.83;;
38425;SDS011;24210;51.460;6.148;2024-03-23T01:35:10;9.40;;;1.77;;
38425;SDS011;24210;51.460;6.148;2024-03-23T01:37:35;7.93;;;1.30;;
38425;SDS011;24210;51.460;6.148;2024-03-23T01:40:00;8.00;;;2.03;;
38425;SDS011;24210;51.460;6.148;2024-03-23T01:42:25;5.50;;;1.93;;
38425;SDS011;24210;51.460;6.148;2024-03-23T01:44:51;3.90;;;1.50;;
38425;SDS011;24210;51.460;6.148;2024-03-23T01:47:16;5.40;;;1.80;;
38425;SDS011;24210;51.460;6.148;2024-03-23T01:49:41;5.03;;;1.60;;
38425;SDS011;24210;51.460;6.148;2024-03-23T01:52:06;3.70;;;1.30;;
38425;SDS011;24210;51.460;6.148;2024-03-23T01:54:31;7.70;;;2.13;;
38425;SDS011;24210;51.460;6.148;2024-03-23T01:56:57;8.87;;;2.70;;
38425;SDS011;24210;51.460;6.148;2024-03-23T01:59:22;7.53;;;1.47;;
38425;SDS011;24210;51.460;6.148;2024-03-23T02:01:48;8.52;;;2.13;;
38425;SDS011;24210;51.460;6.148;2024-03-23T02:04:13;4.83;;;1.70;;
38425;SDS011;24210;51.460;6.148;2024-03-23T02:06:38;9.10;;;2.00;;
38425;SDS011;24210;51.460;6.148;2024-03-23T02:09:04;5.57;;;1.77;;
38425;SDS011;24210;51.460;6.148;2024-03-23T02:11:29;6.20;;;1.67;;
38425;SDS011;24210;51.460;6.148;2024-03-23T02:13:54;8.97;;;2.27;;
38425;SDS011;24210;51.460;6.148;2024-03-23T02:16:19;5.13;;;1.50;;
38425;SDS011;24210;51.460;6.148;2024-03-23T02:18:45;10.23;;;2.27;;
38425;SDS011;24210;51.460;6.148;2024-03-23T02:21:10;7.80;;;2.07;;
38425;SDS011;24210;51.460;6.148;2024-03-23T02:23:35;6.43;;;1.60;;
38425;SDS011;24210;51.460;6.148;2024-03-23T02:26:00;9.67;;;2.13;;
38425;SDS011;24210;51.460;6.148;2024-03-23T02:28:25;5.80;;;1.90;;
38425;SDS011;24210;51.460;6.148;2024-03-23T02:30:51;5.10;;;1.53;;
38425;SDS011;24210;51.460;6.148;2024-03-23T02:33:16;8.17;;;1.90;;
38425;SDS011;24210;51.460;6.148;2024-03-23T02:35:42;8.93;;;3.87;;
38425;SDS011;24210;51.460;6.148;2024-03-23T02:38:07;9.37;;;2.17;;
38425;SDS011;24210;51.460;6.148;2024-03-23T02:40:32;6.50;;;1.93;;
38425;SDS011;24210;51.460;6.148;2024-03-23T02:42:57;6.47;;;2.43;;
38425;SDS011;24210;51.460;6.148;2024-03-23T02:45:23;12.33;;;2.33;;
38425;SDS011;24210;51.460;6.148;2024-03-23T02:47:48;6.47;;;2.17;;
38425;SDS011;24210;51.460;6.148;2024-03-23T02:50:17;6.07;;;2.13;;
38425;SDS011;24210;51.460;6.148;2024-03-23T02:52:42;4.83;;;1.43;;
38425;SDS011;24210;51.460;6.148;2024-03-23T02:55:07;8.03;;;3.77;;
38425;SDS011;24210;51.460;6.148;2024-03-23T02:57:32;7.17;;;2.43;;
38425;SDS011;24210;51.460;6.148;2024-03-23T02:59:58;7.60;;;2.70;;
38425;SDS011;24210;51.460;6.148;2024-03-23T03:02:23;9.80;;;2.60;;
38425;SDS011;24210;51.460;6.148;2024-03-23T03:04:48;8.17;;;2.20;;
38425;SDS011;24210;51.460;6.148;2024-03-23T03:07:13;8.90;;;2.37;;
38425;SDS011;24210;51.460;6.148;2024-03-23T03:09:39;8.27;;;2.57;;
38425;SDS011;24210;51.460;6.148;2024-03-23T03:12:05;4.70;;;2.47;;
38425;SDS011;24210;51.460;6.148;2024-03-23T03:14:30;12.63;;;3.33;;
38425;SDS011;24210;51.460;6.148;2024-03-23T03:16:55;12.30;;;3.73;;
38425;SDS011;24210;51.460;6.148;2024-03-23T03:19:21;5.10;;;2.40;;
38425;SDS011;24210;51.460;6.148;2024-03-23T03:21:46;11.20;;;3.03;;
38425;SDS011;24210;51.460;6.148;2024-03-23T03:24:12;7.28;;;2.00;;
38425;SDS011;24210;51.460;6.148;2024-03-23T03:26:38;9.20;;;2.10;;
38425;SDS011;24210;51.460;6.148;2024-03-23T03:29:03;6.27;;;2.33;;
38425;SDS011;24210;51.460;6.148;2024-03-23T03:31:28;10.17;;;2.90;;
38425;SDS011;24210;51.460;6.148;2024-03-23T03:33:53;13.63;;;3.03;;
38425;SDS011;24210;51.460;6.148;2024-03-23T03:36:19;7.57;;;2.33;;
38425;SDS011;24210;51.460;6.148;2024-03-23T03:38:44;8.00;;;2.67;;
38425;SDS011;24210;51.460;6.148;2024-03-23T03:41:10;8.67;;;2.97;;
38425;SDS011;24210;51.460;6.148;2024-03-23T03:43:35;8.77;;;2.80;;
38425;SDS011;24210;51.460;6.148;2024-03-23T03:46:00;7.90;;;2.43;;
38425;SDS011;24210;51.460;6.148;2024-03-23T03:48:26;6.07;;;2.47;;
38425;SDS011;24210;51.460;6.148;2024-03-23T03:50:52;6.13;;;2.70;;
38425;SDS011;24210;51.460;6.148;2024-03-23T03:53:17;12.60;;;2.65;;
38425;SDS011;24210;51.460;6.148;2024-03-23T03:55:42;8.63;;;3.30;;
38425;SDS011;24210;51.460;6.148;2024-03-23T03:58:07;5.13;;;2.67;;
38425;SDS011;24210;51.460;6.148;2024-03-23T04:00:33;9.13;;;2.90;;
38425;SDS011;24210;51.460;6.148;2024-03-23T04:02:58;6.20;;;2.43;;
38425;SDS011;24210;51.460;6.148;2024-03-23T04:05:23;8.93;;;2.50;;
38425;SDS011;24210;51.460;6.148;2024-03-23T04:07:49;8.63;;;2.57;;
38425;SDS011;24210;51.460;6.148;2024-03-23T04:10:14;5.90;;;2.27;;
38425;SDS011;24210;51.460;6.148;2024-03-23T04:12:40;3.73;;;2.40;;
38425;SDS011;24210;51.460;6.148;2024-03-23T04:15:05;10.77;;;3.60;;
38425;SDS011;24210;51.460;6.148;2024-03-23T04:17:31;7.53;;;2.90;;
38425;SDS011;24210;51.460;6.148;2024-03-23T04:19:59;9.10;;;2.60;;
38425;SDS011;24210;51.460;6.148;2024-03-23T04:22:25;8.18;;;2.03;;
38425;SDS011;24210;51.460;6.148;2024-03-23T04:24:52;4.43;;;2.00;;
38425;SDS011;24210;51.460;6.148;2024-03-23T04:27:18;7.57;;;2.95;;
38425;SDS011;24210;51.460;6.148;2024-03-23T04:29:46;5.20;;;2.23;;
38425;SDS011;24210;51.460;6.148;2024-03-23T04:32:11;5.75;;;2.42;;
38425;SDS011;24210;51.460;6.148;2024-03-23T04:34:36;3.63;;;2.57;;
38425;SDS011;24210;51.460;6.148;2024-03-23T04:37:01;9.47;;;2.50;;
38425;SDS011;24210;51.460;6.148;2024-03-23T04:39:27;6.27;;;1.73;;
38425;SDS011;24210;51.460;6.148;2024-03-23T04:41:52;4.50;;;2.07;;
38425;SDS011;24210;51.460;6.148;2024-03-23T04:44:17;4.57;;;2.07;;
38425;SDS011;24210;51.460;6.148;2024-03-23T04:46:42;6.47;;;2.30;;
38425;SDS011;24210;51.460;6.148;2024-03-23T04:49:08;5.50;;;1.77;;
38425;SDS011;24210;51.460;6.148;2024-03-23T04:51:36;5.50;;;1.97;;
38425;SDS011;24210;51.460;6.148;2024-03-23T04:54:02;5.22;;;2.40;;
38425;SDS011;24210;51.460;6.148;2024-03-23T04:56:27;5.17;;;1.73;;
38425;SDS011;24210;51.460;6.148;2024-03-23T04:58:53;3.13;;;1.43;;
38425;SDS011;24210;51.460;6.148;2024-03-23T05:01:19;3.67;;;2.28;;
38425;SDS011;24210;51.460;6.148;2024-03-23T05:03:44;4.50;;;1.70;;
38425;SDS011;24210;51.460;6.148;2024-03-23T05:06:09;6.50;;;2.17;;
38425;SDS011;24210;51.460;6.148;2024-03-23T05:08:34;6.67;;;1.63;;
38425;SDS011;24210;51.460;6.148;2024-03-23T05:11:00;5.53;;;1.90;;
38425;SDS011;24210;51.460;6.148;2024-03-23T05:13:25;9.73;;;1.80;;
38425;SDS011;24210;51.460;6.148;2024-03-23T05:15:51;9.10;;;2.87;;
38425;SDS011;24210;51.460;6.148;2024-03-23T05:18:17;7.72;;;1.88;;
38425;SDS011;24210;51.460;6.148;2024-03-23T05:20:42;5.67;;;2.67;;
38425;SDS011;24210;51.460;6.148;2024-03-23T05:23:07;8.90;;;3.10;;
38425;SDS011;24210;51.460;6.148;2024-03-23T05:25:32;5.27;;;2.13;;
38425;SDS011;24210;51.460;6.148;2024-03-23T05:27:57;8.07;;;3.20;;
38425;SDS011;24210;51.460;6.148;2024-03-23T05:30:23;5.00;;;2.00;;
38425;SDS011;24210;51.460;6.148;2024-03-23T05:32:48;7.53;;;2.77;;
38425;SDS011;24210;51.460;6.148;2024-03-23T05:35:13;8.77;;;2.83;;
38425;SDS011;24210;51.460;6.148;2024-03-23T05:37:39;7.47;;;3.03;;
38425;SDS011;24210;51.460;6.148;2024-03-23T05:40:04;10.03;;;3.33;;
38425;SDS011;24210;51.460;6.148;2024-03-23T05:42:29;7.73;;;3.23;;
38425;SDS011;24210;51.460;6.148;2024-03-23T05:44:55;10.23;;;4.03;;
38425;SDS011;24210;51.460;6.148;2024-03-23T05:47:20;7.57;;;3.57;;
38425;SDS011;24210;51.460;6.148;2024-03-23T05:49:45;13.73;;;4.33;;
38425;SDS011;24210;51.460;6.148;2024-03-23T05:52:11;10.63;;;3.73;;
38425;SDS011;24210;51.460;6.148;2024-03-23T05:54:36;9.43;;;4.30;;
38425;SDS011;24210;51.460;6.148;2024-03-23T05:57:01;9.03;;;4.83;;
38425;SDS011;24210;51.460;6.148;2024-03-23T05:59:27;14.37;;;6.37;;
38425;SDS011;24210;51.460;6.148;2024-03-23T06:01:52;15.57;;;5.00;;
38425;SDS011;24210;51.460;6.148;2024-03-23T06:04:17;15.97;;;5.73;;
38425;SDS011;24210;51.460;6.148;2024-03-23T06:06:42;11.20;;;5.00;;
38425;SDS011;24210;51.460;6.148;2024-03-23T06:09:08;7.77;;;4.73;;
38425;SDS011;24210;51.460;6.148;2024-03-23T06:11:33;11.37;;;5.63;;
38425;SDS011;24210;51.460;6.148;2024-03-23T06:13:58;13.83;;;5.00;;
38425;SDS011;24210;51.460;6.148;2024-03-23T06:16:23;10.07;;;4.97;;
38425;SDS011;24210;51.460;6.148;2024-03-23T06:18:50;10.93;;;5.70;;
38425;SDS011;24210;51.460;6.148;2024-03-23T06:21:15;8.45;;;4.32;;
38425;SDS011;24210;51.460;6.148;2024-03-23T06:23:41;13.73;;;5.53;;
38425;SDS011;24210;51.460;6.148;2024-03-23T06:26:06;11.17;;;5.87;;
38425;SDS011;24210;51.460;6.148;2024-03-23T06:28:31;9.30;;;5.07;;
38425;SDS011;24210;51.460;6.148;2024-03-23T06:30:57;10.97;;;5.10;;
38425;SDS011;24210;51.460;6.148;2024-03-23T06:33:22;12.77;;;5.07;;
38425;SDS011;24210;51.460;6.148;2024-03-23T06:35:50;11.27;;;5.03;;
38425;SDS011;24210;51.460;6.148;2024-03-23T06:38:17;12.85;;;4.90;;
38425;SDS011;24210;51.460;6.148;2024-03-23T06:40:42;14.73;;;5.60;;
38425;SDS011;24210;51.460;6.148;2024-03-23T06:43:07;13.77;;;4.90;;
38425;SDS011;24210;51.460;6.148;2024-03-23T06:45:32;9.93;;;5.20;;
38425;SDS011;24210;51.460;6.148;2024-03-23T06:47:57;13.17;;;5.37;;
38425;SDS011;24210;51.460;6.148;2024-03-23T06:50:23;10.07;;;4.57;;
38425;SDS011;24210;51.460;6.148;2024-03-23T06:52:49;13.07;;;5.20;;
38425;SDS011;24210;51.460;6.148;2024-03-23T06:55:14;11.45;;;3.97;;
38425;SDS011;24210;51.460;6.148;2024-03-23T06:57:39;10.30;;;3.53;;
38425;SDS011;24210;51.460;6.148;2024-03-23T07:00:05;13.43;;;4.80;;
38425;SDS011;24210;51.460;6.148;2024-03-23T07:02:34;11.93;;;3.78;;
38425;SDS011;24210;51.460;6.148;2024-03-23T07:05:00;12.73;;;3.73;;
38425;SDS011;24210;51.460;6.148;2024-03-23T07:07:25;12.83;;;3.53;;
38425;SDS011;24210;51.460;6.148;2024-03-23T07:09:50;10.00;;;4.27;;
38425;SDS011;24210;51.460;6.148;2024-03-23T07:12:15;12.07;;;4.30;;
38425;SDS011;24210;51.460;6.148;2024-03-23T07:14:41;9.33;;;4.20;;
38425;SDS011;24210;51.460;6.148;2024-03-23T07:17:06;10.10;;;3.83;;
38425;SDS011;24210;51.460;6.148;2024-03-23T07:19:31;16.57;;;4.10;;
38425;SDS011;24210;51.460;6.148;2024-03-23T07:21:56;13.67;;;3.50;;
38425;SDS011;24210;51.460;6.148;2024-03-23T07:24:21;3.07;;;1.80;;
38425;SDS011;24210;51.460;6.148;2024-03-23T07:26:47;6.57;;;2.83;;
38425;SDS011;24210;51.460;6.148;2024-03-23T07:29:12;8.97;;;2.47;;
38425;SDS011;24210;51.460;6.148;2024-03-23T07:31:38;8.20;;;2.10;;
38425;SDS011;24210;51.460;6.148;2024-03-23T07:34:03;10.27;;;3.57;;
38425;SDS011;24210;51.460;6.148;2024-03-23T07:36:29;11.73;;;2.97;;
38425;SDS011;24210;51.460;6.148;2024-03-23T07:38:54;9.47;;;2.20;;
38425;SDS011;24210;51.460;6.148;2024-03-23T07:41:19;6.17;;;3.00;;
38425;SDS011;24210;51.460;6.148;2024-03-23T07:43:45;5.87;;;2.63;;
38425;SDS011;24210;51.460;6.148;2024-03-23T07:46:11;4.23;;;1.67;;
38425;SDS011;24210;51.460;6.148;2024-03-23T07:48:37;6.30;;;2.38;;
38425;SDS011;24210;51.460;6.148;2024-03-23T07:51:06;5.40;;;2.20;;
38425;SDS011;24210;51.460;6.148;2024-03-23T07:53:32;4.13;;;1.52;;
38425;SDS011;24210;51.460;6.148;2024-03-23T07:56:07;8.10;;;2.10;;
38425;SDS011;24210;51.460;6.148;2024-03-23T07:58:33;6.63;;;1.88;;
38425;SDS011;24210;51.460;6.148;2024-03-23T08:01:05;4.90;;;1.30;;
38425;SDS011;24210;51.460;6.148;2024-03-23T08:03:30;6.80;;;1.50;;
38425;SDS011;24210;51.460;6.148;2024-03-23T08:05:55;2.77;;;0.97;;
38425;SDS011;24210;51.460;6.148;2024-03-23T08:08:21;6.57;;;0.80;;
38425;SDS011;24210;51.460;6.148;2024-03-23T08:10:49;2.53;;;2.20;;
38425;SDS011;24210;51.460;6.148;2024-03-23T08:13:15;8.63;;;1.85;;
38425;SDS011;24210;51.460;6.148;2024-03-23T08:15:40;5.73;;;1.53;;
38425;SDS011;24210;51.460;6.148;2024-03-23T08:18:05;8.23;;;2.73;;
38425;SDS011;24210;51.460;6.148;2024-03-23T08:20:31;4.60;;;1.07;;
38425;SDS011;24210;51.460;6.148;2024-03-23T08:22:56;10.23;;;2.03;;
38425;SDS011;24210;51.460;6.148;2024-03-23T08:25:21;10.03;;;2.93;;
38425;SDS011;24210;51.460;6.148;2024-03-23T08:27:46;4.30;;;1.83;;
38425;SDS011;24210;51.460;6.148;2024-03-23T08:30:11;9.23;;;3.10;;
38425;SDS011;24210;51.460;6.148;2024-03-23T08:32:37;3.67;;;0.83;;
38425;SDS011;24210;51.460;6.148;2024-03-23T08:35:02;4.43;;;2.20;;
38425;SDS011;24210;51.460;6.148;2024-03-23T08:37:27;3.33;;;1.43;;
38425;SDS011;24210;51.460;6.148;2024-03-23T08:39:53;9.63;;;3.93;;
38425;SDS011;24210;51.460;6.148;2024-03-23T08:42:18;3.20;;;1.77;;
38425;SDS011;24210;51.460;6.148;2024-03-23T08:44:43;9.23;;;2.37;;
38425;SDS011;24210;51.460;6.148;2024-03-23T08:47:11;6.78;;;2.40;;
38425;SDS011;24210;51.460;6.148;2024-03-23T08:49:36;6.67;;;2.67;;
38425;SDS011;24210;51.460;6.148;2024-03-23T08:52:01;7.13;;;2.87;;
38425;SDS011;24210;51.460;6.148;2024-03-23T08:54:27;4.57;;;1.77;;
38425;SDS011;24210;51.460;6.148;2024-03-23T08:56:54;10.85;;;1.98;;
38425;SDS011;24210;51.460;6.148;2024-03-23T08:59:19;11.47;;;2.33;;
38425;SDS011;24210;51.460;6.148;2024-03-23T09:01:45;2.87;;;1.83;;
38425;SDS011;24210;51.460;6.148;2024-03-23T09:04:10;6.47;;;1.70;;
38425;SDS011;24210;51.460;6.148;2024-03-23T09:06:35;5.20;;;2.63;;
38425;SDS011;24210;51.460;6.148;2024-03-23T09:09:00;4.47;;;1.60;;
38425;SDS011;24210;51.460;6.148;2024-03-23T09:11:26;4.23;;;1.63;;
38425;SDS011;24210;51.460;6.148;2024-03-23T09:13:51;9.83;;;1.57;;
38425;SDS011;24210;51.460;6.148;2024-03-23T09:16:16;5.47;;;1.33;;
38425;SDS011;24210;51.460;6.148;2024-03-23T09:18:41;4.87;;;0.97;;
38425;SDS011;24210;51.460;6.148;2024-03-23T09:21:12;5.37;;;1.57;;
38425;SDS011;24210;51.460;6.148;2024-03-23T09:23:44;3.08;;;1.48;;
38425;SDS011;24210;51.460;6.148;2024-03-23T09:26:09;4.13;;;0.98;;
38425;SDS011;24210;51.460;6.148;2024-03-23T09:28:34;0.87;;;0.37;;
38425;SDS011;24210;51.460;6.148;2024-03-23T09:31:03;5.83;;;1.17;;
38425;SDS011;24210;51.460;6.148;2024-03-23T09:33:28;6.78;;;1.05;;
38425;SDS011;24210;51.460;6.148;2024-03-23T09:35:54;6.50;;;1.43;;
38425;SDS011;24210;51.460;6.148;2024-03-23T09:38:20;5.60;;;2.23;;
38425;SDS011;24210;51.460;6.148;2024-03-23T09:40:45;9.93;;;1.33;;
38425;SDS011;24210;51.460;6.148;2024-03-23T09:43:13;10.65;;;1.67;;
38425;SDS011;24210;51.460;6.148;2024-03-23T09:45:39;4.67;;;0.43;;
38425;SDS011;24210;51.460;6.148;2024-03-23T09:48:04;4.70;;;0.90;;
38425;SDS011;24210;51.460;6.148;2024-03-23T09:50:30;2.95;;;0.82;;
38425;SDS011;24210;51.460;6.148;2024-03-23T09:52:56;1.33;;;0.50;;
38425;SDS011;24210;51.460;6.148;2024-03-23T09:55:21;2.73;;;0.43;;
38425;SDS011;24210;51.460;6.148;2024-03-23T09:57:46;1.17;;;1.00;;
38425;SDS011;24210;51.460;6.148;2024-03-23T10:00:12;2.23;;;0.20;;
38425;SDS011;24210;51.460;6.148;2024-03-23T10:02:37;0.40;;;0.13;;
38425;SDS011;24210;51.460;6.148;2024-03-23T10:05:03;1.87;;;0.40;;
38425;SDS011;24210;51.460;6.148;2024-03-23T10:07:29;1.95;;;0.80;;
38425;SDS011;24210;51.460;6.148;2024-03-23T10:09:54;1.07;;;0.20;;
38425;SDS011;24210;51.460;6.148;2024-03-23T10:12:20;1.23;;;0.10;;
38425;SDS011;24210;51.460;6.148;2024-03-23T10:14:45;1.10;;;0.37;;
38425;SDS011;24210;51.460;6.148;2024-03-23T10:17:18;2.55;;;0.20;;
38425;SDS011;24210;51.460;6.148;2024-03-23T10:19:47;2.80;;;0.38;;
38425;SDS011;24210;51.460;6.148;2024-03-23T10:22:14;1.60;;;0.40;;
38425;SDS011;24210;51.460;6.148;2024-03-23T10:24:40;1.57;;;0.30;;
38425;SDS011;24210;51.460;6.148;2024-03-23T10:27:05;2.87;;;0.33;;
38425;SDS011;24210;51.460;6.148;2024-03-23T10:29:31;4.40;;;0.80;;
38425;SDS011;24210;51.460;6.148;2024-03-23T10:32:29;2.33;;;0.73;;
38425;SDS011;24210;51.460;6.148;2024-03-23T10:34:47;6.95;;;1.52;;
38425;SDS011;24210;51.460;6.148;2024-03-23T10:37:12;5.37;;;0.90;;
38425;SDS011;24210;51.460;6.148;2024-03-23T10:39:39;2.53;;;0.50;;
38425;SDS011;24210;51.460;6.148;2024-03-23T10:42:05;2.40;;;0.60;;
38425;SDS011;24210;51.460;6.148;2024-03-23T10:44:30;2.60;;;0.68;;
38425;SDS011;24210;51.460;6.148;2024-03-23T10:46:59;4.37;;;1.60;;
38425;SDS011;24210;51.460;6.148;2024-03-23T10:49:26;5.97;;;1.38;;
38425;SDS011;24210;51.460;6.148;2024-03-23T10:51:51;3.13;;;1.37;;
38425;SDS011;24210;51.460;6.148;2024-03-23T10:54:17;6.17;;;2.17;;
38425;SDS011;24210;51.460;6.148;2024-03-23T10:56:43;4.85;;;2.28;;
38425;SDS011;24210;51.460;6.148;2024-03-23T10:59:08;5.03;;;1.17;;
38425;SDS011;24210;51.460;6.148;2024-03-23T11:01:34;4.97;;;0.97;;
38425;SDS011;24210;51.460;6.148;2024-03-23T11:03:59;4.50;;;1.00;;
38425;SDS011;24210;51.460;6.148;2024-03-23T11:06:35;8.37;;;1.30;;
38425;SDS011;24210;51.460;6.148;2024-03-23T11:09:00;5.90;;;0.80;;
38425;SDS011;24210;51.460;6.148;2024-03-23T11:11:25;2.83;;;0.93;;
38425;SDS011;24210;51.460;6.148;2024-03-23T11:13:52;0.33;;;0.10;;
38425;SDS011;24210;51.460;6.148;2024-03-23T11:18:43;1.50;;;0.80;;
38425;SDS011;24210;51.460;6.148;2024-03-23T11:21:09;2.28;;;0.43;;
38425;SDS011;24210;51.460;6.148;2024-03-23T11:23:34;2.63;;;0.50;;
38425;SDS011;24210;51.460;6.148;2024-03-23T11:25:59;2.13;;;0.60;;
38425;SDS011;24210;51.460;6.148;2024-03-23T11:28:24;3.07;;;0.60;;
38425;SDS011;24210;51.460;6.148;2024-03-23T11:30:49;3.43;;;0.53;;
38425;SDS011;24210;51.460;6.148;2024-03-23T11:33:15;3.73;;;0.97;;
38425;SDS011;24210;51.460;6.148;2024-03-23T11:35:40;3.40;;;0.60;;
38425;SDS011;24210;51.460;6.148;2024-03-23T11:38:13;3.37;;;0.70;;
38425;SDS011;24210;51.460;6.148;2024-03-23T11:40:39;4.13;;;0.70;;
38425;SDS011;24210;51.460;6.148;2024-03-23T11:43:06;3.83;;;0.73;;
38425;SDS011;24210;51.460;6.148;2024-03-23T11:45:35;2.60;;;0.82;;
38425;SDS011;24210;51.460;6.148;2024-03-23T11:48:13;4.00;;;1.38;;
38425;SDS011;24210;51.460;6.148;2024-03-23T11:50:39;4.32;;;1.25;;
38425;SDS011;24210;51.460;6.148;2024-03-23T11:53:09;5.13;;;1.30;;
38425;SDS011;24210;51.460;6.148;2024-03-23T11:58:09;4.57;;;1.42;;
38425;SDS011;24210;51.460;6.148;2024-03-23T12:00:34;3.87;;;1.33;;
38425;SDS011;24210;51.460;6.148;2024-03-23T12:03:00;1.67;;;0.53;;
38425;SDS011;24210;51.460;6.148;2024-03-23T12:05:26;4.38;;;0.93;;
38425;SDS011;24210;51.460;6.148;2024-03-23T12:07:51;3.33;;;0.67;;
38425;SDS011;24210;51.460;6.148;2024-03-23T12:10:18;1.73;;;0.50;;
38425;SDS011;24210;51.460;6.148;2024-03-23T12:12:44;6.07;;;0.90;;
38425;SDS011;24210;51.460;6.148;2024-03-23T12:15:09;3.70;;;0.70;;
38425;SDS011;24210;51.460;6.148;2024-03-23T12:17:36;5.13;;;0.95;;
38425;SDS011;24210;51.460;6.148;2024-03-23T12:20:01;4.17;;;1.30;;
38425;SDS011;24210;51.460;6.148;2024-03-23T12:22:27;1.50;;;0.50;;
38425;SDS011;24210;51.460;6.148;2024-03-23T12:24:54;2.65;;;0.88;;
38425;SDS011;24210;51.460;6.148;2024-03-23T12:27:19;8.53;;;1.43;;
38425;SDS011;24210;51.460;6.148;2024-03-23T12:29:44;3.50;;;0.83;;
38425;SDS011;24210;51.460;6.148;2024-03-23T12:34:36;4.13;;;0.82;;
38425;SDS011;24210;51.460;6.148;2024-03-23T12:37:01;2.80;;;0.63;;
38425;SDS011;24210;51.460;6.148;2024-03-23T12:39:27;2.90;;;0.70;;
38425;SDS011;24210;51.460;6.148;2024-03-23T12:41:52;6.17;;;1.17;;
38425;SDS011;24210;51.460;6.148;2024-03-23T12:44:20;4.50;;;1.52;;
38425;SDS011;24210;51.460;6.148;2024-03-23T12:46:46;1.33;;;0.27;;
38425;SDS011;24210;51.460;6.148;2024-03-23T12:49:11;1.27;;;0.43;;
38425;SDS011;24210;51.460;6.148;2024-03-23T12:51:36;4.33;;;0.30;;
38425;SDS011;24210;51.460;6.148;2024-03-23T12:54:02;1.43;;;0.30;;
38425;SDS011;24210;51.460;6.148;2024-03-23T12:56:27;1.37;;;0.50;;
38425;SDS011;24210;51.460;6.148;2024-03-23T12:58:56;1.75;;;0.20;;
38425;SDS011;24210;51.460;6.148;2024-03-23T13:01:22;1.48;;;0.10;;
38425;SDS011;24210;51.460;6.148;2024-03-23T13:03:48;6.60;;;0.43;;
38425;SDS011;24210;51.460;6.148;2024-03-23T13:06:14;3.42;;;0.50;;
38425;SDS011;24210;51.460;6.148;2024-03-23T13:08:39;0.77;;;0.43;;
38425;SDS011;24210;51.460;6.148;2024-03-23T13:11:07;0.30;;;0.20;;
38425;SDS011;24210;51.460;6.148;2024-03-23T13:13:35;1.75;;;0.47;;
38425;SDS011;24210;51.460;6.148;2024-03-23T13:16:01;0.53;;;0.53;;
38425;SDS011;24210;51.460;6.148;2024-03-23T13:18:27;0.70;;;0.20;;
38425;SDS011;24210;51.460;6.148;2024-03-23T13:20:52;3.77;;;0.33;;
38425;SDS011;24210;51.460;6.148;2024-03-23T13:23:18;2.00;;;0.73;;
38425;SDS011;24210;51.460;6.148;2024-03-23T13:25:50;2.80;;;0.37;;
38425;SDS011;24210;51.460;6.148;2024-03-23T13:28:15;2.20;;;0.55;;
38425;SDS011;24210;51.460;6.148;2024-03-23T13:30:49;1.48;;;0.43;;
38425;SDS011;24210;51.460;6.148;2024-03-23T13:33:14;3.33;;;0.70;;
38425;SDS011;24210;51.460;6.148;2024-03-23T13:35:39;1.70;;;0.30;;
38425;SDS011;24210;51.460;6.148;2024-03-23T13:38:04;2.40;;;0.67;;
38425;SDS011;24210;51.460;6.148;2024-03-23T13:40:30;1.30;;;0.27;;
38425;SDS011;24210;51.460;6.148;2024-03-23T13:42:55;2.90;;;0.20;;
38425;SDS011;24210;51.460;6.148;2024-03-23T13:45:20;0.20;;;0.13;;
38425;SDS011;24210;51.460;6.148;2024-03-23T13:47:45;2.67;;;0.90;;
38425;SDS011;24210;51.460;6.148;2024-03-23T13:50:10;0.30;;;0.00;;
38425;SDS011;24210;51.460;6.148;2024-03-23T13:52:36;0.37;;;0.00;;
38425;SDS011;24210;51.460;6.148;2024-03-23T13:55:01;3.30;;;0.30;;
38425;SDS011;24210;51.460;6.148;2024-03-23T13:57:26;2.13;;;0.13;;
38425;SDS011;24210;51.460;6.148;2024-03-23T13:59:51;0.87;;;0.13;;
38425;SDS011;24210;51.460;6.148;2024-03-23T14:02:16;3.00;;;0.97;;
38425;SDS011;24210;51.460;6.148;2024-03-23T14:04:42;1.90;;;0.40;;
38425;SDS011;24210;51.460;6.148;2024-03-23T14:07:07;1.70;;;0.47;;
38425;SDS011;24210;51.460;6.148;2024-03-23T14:11:59;2.92;;;0.60;;
38425;SDS011;24210;51.460;6.148;2024-03-23T14:14:25;2.33;;;0.52;;
38425;SDS011;24210;51.460;6.148;2024-03-23T14:16:50;5.73;;;0.83;;
38425;SDS011;24210;51.460;6.148;2024-03-23T14:19:15;2.93;;;0.40;;
38425;SDS011;24210;51.460;6.148;2024-03-23T14:21:40;2.23;;;0.50;;
38425;SDS011;24210;51.460;6.148;2024-03-23T14:24:06;4.30;;;1.27;;
38425;SDS011;24210;51.460;6.148;2024-03-23T14:26:31;5.87;;;1.00;;
38425;SDS011;24210;51.460;6.148;2024-03-23T14:28:56;5.13;;;1.17;;
38425;SDS011;24210;51.460;6.148;2024-03-23T14:31:21;5.43;;;1.20;;
38425;SDS011;24210;51.460;6.148;2024-03-23T14:33:47;2.37;;;0.70;;
38425;SDS011;24210;51.460;6.148;2024-03-23T14:36:15;3.87;;;0.40;;
38425;SDS011;24210;51.460;6.148;2024-03-23T14:38:41;3.10;;;0.50;;
38425;SDS011;24210;51.460;6.148;2024-03-23T14:41:06;2.73;;;0.40;;
38425;SDS011;24210;51.460;6.148;2024-03-23T14:43:31;5.60;;;1.00;;
38425;SDS011;24210;51.460;6.148;2024-03-23T14:46:07;3.53;;;0.60;;
38425;SDS011;24210;51.460;6.148;2024-03-23T14:48:32;2.95;;;0.40;;
38425;SDS011;24210;51.460;6.148;2024-03-23T14:56:08;4.85;;;0.73;;
38425;SDS011;24210;51.460;6.148;2024-03-23T14:58:36;3.83;;;0.80;;
38425;SDS011;24210;51.460;6.148;2024-03-23T15:01:02;2.27;;;0.63;;
38425;SDS011;24210;51.460;6.148;2024-03-23T15:03:28;2.95;;;0.50;;
38425;SDS011;24210;51.460;6.148;2024-03-23T15:05:56;3.53;;;0.33;;
38425;SDS011;24210;51.460;6.148;2024-03-23T15:08:22;4.45;;;0.95;;
38425;SDS011;24210;51.460;6.148;2024-03-23T15:10:47;2.93;;;1.13;;
38425;SDS011;24210;51.460;6.148;2024-03-23T15:13:12;3.60;;;1.13;;
38425;SDS011;24210;51.460;6.148;2024-03-23T15:18:05;3.65;;;0.90;;
38425;SDS011;24210;51.460;6.148;2024-03-23T15:20:31;5.70;;;0.80;;
38425;SDS011;24210;51.460;6.148;2024-03-23T15:22:56;5.17;;;1.10;;
38425;SDS011;24210;51.460;6.148;2024-03-23T15:25:21;3.00;;;0.50;;
38425;SDS011;24210;51.460;6.148;2024-03-23T15:27:48;1.58;;;0.50;;
38425;SDS011;24210;51.460;6.148;2024-03-23T15:30:13;2.13;;;0.50;;
38425;SDS011;24210;51.460;6.148;2024-03-23T15:32:39;3.10;;;1.13;;
38425;SDS011;24210;51.460;6.148;2024-03-23T15:35:04;2.73;;;0.93;;
38425;SDS011;24210;51.460;6.148;2024-03-23T15:37:31;2.10;;;0.95;;
38425;SDS011;24210;51.460;6.148;2024-03-23T15:39:56;12.95;;;8.07;;
38425;SDS011;24210;51.460;6.148;2024-03-23T15:42:21;3.53;;;1.40;;
38425;SDS011;24210;51.460;6.148;2024-03-23T15:44:47;2.00;;;0.40;;
38425;SDS011;24210;51.460;6.148;2024-03-23T15:47:12;2.63;;;1.43;;
38425;SDS011;24210;51.460;6.148;2024-03-23T15:49:37;4.80;;;0.83;;